Weather at Erbil International Airport

Public forecast

Using degrees Celsius for public forecast. Weather courtesy of forecast.io.

Current aviation weather report (METAR) for Erbil International Airport

2024/05/28 03:00 (retrieved 21 minutes ago)

ORER 280300Z 00000KT 8000 NSC 20/10 Q1013

Aviation forecast (TAF) for Erbil International Airport

Forecast is more than 6 hours old.

2024/05/27 18:03 (retrieved 9 hours ago)

TAF ORER 271700Z 2718/2818 23004KT 8000 NSC BECMG 2720/2722 VRB02KT